createdAt,value
2022-12-18T00:00:18.891Z,-5.11
2022-12-18T00:01:18.917Z,-5.17
2022-12-18T00:02:18.881Z,-4.95
2022-12-18T00:03:18.938Z,-5.01
2022-12-18T00:04:18.893Z,-4.80
2022-12-18T00:05:18.849Z,-4.80
2022-12-18T00:06:18.853Z,-4.65
2022-12-18T00:07:18.850Z,-4.75
2022-12-18T00:08:18.831Z,-4.76
2022-12-18T00:09:18.837Z,-4.89
2022-12-18T00:10:18.809Z,-5.05
2022-12-18T00:11:18.819Z,-5.11
2022-12-18T00:13:19.813Z,-4.89
2022-12-18T00:14:18.788Z,-4.89
2022-12-18T00:15:18.804Z,-4.93
2022-12-18T00:16:18.812Z,-4.82
2022-12-18T00:17:18.780Z,-5.01
2022-12-18T00:18:20.730Z,-4.97
2022-12-18T00:19:19.889Z,-4.85
2022-12-18T00:20:18.748Z,-4.73
2022-12-18T00:21:18.735Z,-4.87
2022-12-18T00:22:18.745Z,-4.82
2022-12-18T00:23:18.744Z,-4.75
2022-12-18T00:24:18.731Z,-4.66
2022-12-18T00:25:18.718Z,-4.79
2022-12-18T00:26:18.708Z,-4.95
2022-12-18T00:27:18.708Z,-5.08
2022-12-18T00:28:18.722Z,-5.23
2022-12-18T00:29:18.708Z,-5.27
2022-12-18T00:30:18.704Z,-5.07
2022-12-18T00:31:18.763Z,-5.20
2022-12-18T00:32:18.676Z,-5.14
2022-12-18T00:33:18.676Z,-5.20
2022-12-18T00:34:18.706Z,-5.17
2022-12-18T00:35:18.659Z,-5.07
2022-12-18T00:36:18.655Z,-4.94
2022-12-18T00:37:20.360Z,-4.97
2022-12-18T00:38:19.644Z,-5.07
2022-12-18T00:39:18.648Z,-5.12
2022-12-18T00:40:18.640Z,-4.97
2022-12-18T00:41:18.617Z,-4.97
2022-12-18T00:42:18.620Z,-4.91
2022-12-18T00:43:18.608Z,-4.95
2022-12-18T00:44:18.605Z,-5.01
2022-12-18T00:45:18.604Z,-5.00
2022-12-18T00:46:18.681Z,-4.86
2022-12-18T00:47:18.574Z,-4.86
2022-12-18T00:48:18.570Z,-4.59
2022-12-18T00:49:18.584Z,-4.57
2022-12-18T00:50:18.558Z,-4.50
2022-12-18T00:51:18.553Z,-4.43
2022-12-18T00:52:18.554Z,-4.29
2022-12-18T00:53:18.538Z,-4.30
2022-12-18T00:54:18.553Z,-4.38
2022-12-18T00:55:18.533Z,-4.83
2022-12-18T00:56:18.524Z,-5.17
2022-12-18T00:57:18.511Z,-5.22
2022-12-18T00:58:18.517Z,-5.33
2022-12-18T00:59:18.534Z,-5.12
2022-12-18T01:00:18.497Z,-4.97
2022-12-18T01:01:18.599Z,-4.91
2022-12-18T01:02:18.649Z,-4.83
2022-12-18T01:03:18.584Z,-4.87
2022-12-18T01:04:18.482Z,-4.86
2022-12-18T01:05:18.466Z,-4.82
2022-12-18T01:06:18.458Z,-4.91
2022-12-18T01:07:18.461Z,-5.07
2022-12-18T01:08:18.444Z,-5.11
2022-12-18T01:09:18.434Z,-4.87
2022-12-18T01:10:18.436Z,-4.91
2022-12-18T01:11:18.437Z,-4.77
2022-12-18T01:12:18.408Z,-4.64
2022-12-18T01:13:18.417Z,-4.59
2022-12-18T01:14:18.396Z,-4.76
2022-12-18T01:15:18.408Z,-4.89
2022-12-18T01:16:18.457Z,-4.89
2022-12-18T01:17:18.382Z,-5.12
2022-12-18T01:18:18.371Z,-4.94
2022-12-18T01:19:18.382Z,-5.07
2022-12-18T01:20:18.366Z,-5.12
2022-12-18T01:21:18.369Z,-5.14
2022-12-18T01:22:18.353Z,-5.20
2022-12-18T01:23:18.344Z,-5.19
2022-12-18T01:24:18.335Z,-4.98
2022-12-18T01:25:18.356Z,-4.82
2022-12-18T01:26:18.312Z,-4.94
2022-12-18T01:27:18.322Z,-5.08
2022-12-18T01:28:18.327Z,-5.25
2022-12-18T01:29:18.300Z,-5.35
2022-12-18T01:30:18.315Z,-5.47
2022-12-18T01:31:18.337Z,-5.22
2022-12-18T01:32:18.292Z,-4.93
2022-12-18T01:33:18.268Z,-4.91
2022-12-18T01:34:18.273Z,-5.03
2022-12-18T01:35:18.260Z,-5.05
2022-12-18T01:36:18.254Z,-5.27
2022-12-18T01:37:18.254Z,-5.23
2022-12-18T01:38:18.261Z,-5.33
2022-12-18T01:39:18.233Z,-5.33
2022-12-18T01:40:19.230Z,-5.22
2022-12-18T01:41:18.212Z,-5.20
2022-12-18T01:42:18.210Z,-5.23
2022-12-18T01:43:18.229Z,-5.03
2022-12-18T01:44:18.205Z,-4.93
2022-12-18T01:45:18.193Z,-4.87
2022-12-18T01:46:18.241Z,-4.89
2022-12-18T01:47:18.189Z,-5.00
2022-12-18T01:48:18.197Z,-5.03
2022-12-18T01:49:18.176Z,-4.95
2022-12-18T01:50:18.161Z,-5.00
2022-12-18T01:51:18.156Z,-4.75
2022-12-18T01:52:18.157Z,-5.03
2022-12-18T01:53:18.141Z,-5.26
2022-12-18T01:54:18.159Z,-5.14
2022-12-18T01:55:18.159Z,-5.04
2022-12-18T01:56:18.118Z,-5.19
2022-12-18T01:57:18.114Z,-5.31
2022-12-18T01:58:18.124Z,-5.33
2022-12-18T01:59:18.116Z,-5.30
2022-12-18T02:00:18.087Z,-5.43
2022-12-18T02:01:18.216Z,-5.55
2022-12-18T02:02:18.198Z,-5.67
2022-12-18T02:03:18.120Z,-5.76
2022-12-18T02:04:18.075Z,-5.79
2022-12-18T02:05:18.077Z,-5.84
2022-12-18T02:06:18.051Z,-5.82
2022-12-18T02:07:18.063Z,-5.74
2022-12-18T02:08:18.038Z,-5.72
2022-12-18T02:09:18.033Z,-5.73
2022-12-18T02:10:18.044Z,-5.67
2022-12-18T02:11:18.019Z,-5.67
2022-12-18T02:12:18.002Z,-5.62
2022-12-18T02:13:18.102Z,-5.77
2022-12-18T02:14:18.004Z,-6.01
2022-12-18T02:15:17.996Z,-5.92
2022-12-18T02:16:18.050Z,-5.88
2022-12-18T02:17:18.012Z,-5.77
2022-12-18T02:18:17.975Z,-5.91
2022-12-18T02:19:17.971Z,-5.79
2022-12-18T02:20:17.979Z,-5.69
2022-12-18T02:21:17.954Z,-5.67
2022-12-18T02:22:18.510Z,-5.65
2022-12-18T02:23:17.936Z,-5.47
2022-12-18T02:24:17.958Z,-5.62
2022-12-18T02:25:17.959Z,-5.67
2022-12-18T02:26:17.979Z,-5.58
2022-12-18T02:27:17.919Z,-5.44
2022-12-18T02:28:17.934Z,-5.41
2022-12-18T02:29:18.002Z,-5.17
2022-12-18T02:30:17.933Z,-5.33
2022-12-18T02:31:17.968Z,-5.23
2022-12-18T02:32:17.899Z,-5.16
2022-12-18T02:33:17.891Z,-5.30
2022-12-18T02:34:17.888Z,-5.59
2022-12-18T02:35:17.891Z,-5.79
2022-12-18T02:36:17.887Z,-5.76
2022-12-18T02:37:17.876Z,-5.90
2022-12-18T02:38:17.859Z,-5.65
2022-12-18T02:39:17.854Z,-5.87
2022-12-18T02:40:17.863Z,-5.82
2022-12-18T02:41:17.867Z,-5.76
2022-12-18T02:42:17.840Z,-5.82
2022-12-18T02:43:17.849Z,-5.76
2022-12-18T02:44:17.828Z,-5.67
2022-12-18T02:45:17.912Z,-5.63
2022-12-18T02:46:17.902Z,-5.56
2022-12-18T02:47:17.807Z,-5.69
2022-12-18T02:48:17.817Z,-5.73
2022-12-18T02:49:17.794Z,-5.69
2022-12-18T02:50:17.791Z,-5.83
2022-12-18T02:51:17.808Z,-5.73
2022-12-18T02:52:17.796Z,-5.83
2022-12-18T02:53:17.780Z,-5.74
2022-12-18T02:54:17.784Z,-5.87
2022-12-18T02:55:17.773Z,-5.70
2022-12-18T02:56:17.766Z,-5.70
2022-12-18T02:57:17.794Z,-5.76
2022-12-18T02:58:17.739Z,-5.72
2022-12-18T02:59:17.745Z,-5.72
2022-12-18T03:00:17.729Z,-5.80
2022-12-18T03:01:17.934Z,-5.92
2022-12-18T03:02:18.060Z,-6.12
2022-12-18T03:03:17.804Z,-6.55
2022-12-18T03:04:17.717Z,-6.73
2022-12-18T03:05:17.723Z,-6.71
2022-12-18T03:06:17.708Z,-6.48
2022-12-18T03:07:17.720Z,-6.16
2022-12-18T03:08:17.713Z,-6.27
2022-12-18T03:09:17.691Z,-6.06
2022-12-18T03:10:17.687Z,-5.95
2022-12-18T03:11:17.692Z,-5.94
2022-12-18T03:12:17.694Z,-5.67
2022-12-18T03:13:17.661Z,-5.67
2022-12-18T03:14:17.672Z,-5.56
2022-12-18T03:15:18.140Z,-5.51
2022-12-18T03:16:18.679Z,-5.54
2022-12-18T03:17:17.745Z,-5.56
2022-12-18T03:18:17.644Z,-5.56
2022-12-18T03:19:17.939Z,-5.56
2022-12-18T03:20:17.637Z,-5.49
2022-12-18T03:21:17.615Z,-5.63
2022-12-18T03:22:17.616Z,-5.72
2022-12-18T03:23:17.627Z,-5.82
2022-12-18T03:24:17.615Z,-5.74
2022-12-18T03:25:17.613Z,-5.88
2022-12-18T03:26:17.611Z,-5.82
2022-12-18T03:27:17.590Z,-5.82
2022-12-18T03:28:17.590Z,-5.61
2022-12-18T03:29:17.591Z,-5.65
2022-12-18T03:30:17.584Z,-5.62
2022-12-18T03:31:17.638Z,-5.69
2022-12-18T03:32:17.573Z,-5.77
2022-12-18T03:33:17.673Z,-5.82
2022-12-18T03:34:17.548Z,-5.98
2022-12-18T03:35:17.566Z,-6.09
2022-12-18T03:36:17.582Z,-6.30
2022-12-18T03:37:17.541Z,-6.40
2022-12-18T03:38:18.375Z,-6.40
2022-12-18T03:39:17.529Z,-6.58
2022-12-18T03:40:17.540Z,-6.61
2022-12-18T03:41:17.534Z,-6.74
2022-12-18T03:42:17.519Z,-6.66
2022-12-18T03:43:17.522Z,-6.81
2022-12-18T03:44:17.523Z,-6.81
2022-12-18T03:45:17.503Z,-6.64
2022-12-18T03:46:17.604Z,-6.61
2022-12-18T03:47:17.505Z,-6.51
2022-12-18T03:48:17.512Z,-6.51
2022-12-18T03:49:22.963Z,-6.45
2022-12-18T03:50:24.444Z,-6.51
2022-12-18T03:51:18.562Z,-6.51
2022-12-18T03:52:17.475Z,-6.59
2022-12-18T03:53:17.495Z,-6.58
2022-12-18T03:54:17.476Z,-6.59
2022-12-18T03:55:17.462Z,-6.64
2022-12-18T03:56:17.473Z,-6.61
2022-12-18T03:57:17.459Z,-6.66
2022-12-18T03:58:17.477Z,-6.84
2022-12-18T03:59:17.463Z,-6.79
2022-12-18T04:00:17.440Z,-6.87
2022-12-18T04:01:17.569Z,-6.91
2022-12-18T04:02:17.635Z,-6.97
2022-12-18T04:03:17.501Z,-7.06
2022-12-18T04:04:17.474Z,-7.15
2022-12-18T04:05:17.438Z,-7.15
2022-12-18T04:06:17.466Z,-7.12
2022-12-18T04:07:17.503Z,-7.15
2022-12-18T04:08:43.846Z,-7.21
2022-12-18T04:09:17.404Z,-7.02
2022-12-18T04:10:17.398Z,-7.09
2022-12-18T04:11:17.398Z,-7.13
2022-12-18T04:12:17.398Z,-7.26
2022-12-18T04:13:17.394Z,-7.16
2022-12-18T04:14:18.179Z,-7.05
2022-12-18T04:15:18.391Z,-7.09
2022-12-18T04:16:17.422Z,-7.12
2022-12-18T04:17:17.379Z,-7.20
2022-12-18T04:18:17.363Z,-7.15
2022-12-18T04:19:17.378Z,-7.10
2022-12-18T04:20:17.372Z,-6.87
2022-12-18T04:21:17.350Z,-6.79
2022-12-18T04:22:17.354Z,-6.74
2022-12-18T04:23:17.437Z,-6.69
2022-12-18T04:24:17.345Z,-6.58
2022-12-18T04:25:17.325Z,-6.50
2022-12-18T04:26:17.334Z,-6.44
2022-12-18T04:27:17.339Z,-6.37
2022-12-18T04:28:17.330Z,-6.40
2022-12-18T04:29:17.318Z,-6.23
2022-12-18T04:30:17.320Z,-6.30
2022-12-18T04:31:17.348Z,-6.29
2022-12-18T04:32:17.310Z,-6.16
2022-12-18T04:33:17.320Z,-6.47
2022-12-18T04:34:17.294Z,-6.85
2022-12-18T04:35:17.303Z,-7.05
2022-12-18T04:36:17.324Z,-6.94
2022-12-18T04:37:17.300Z,-6.92
2022-12-18T04:38:17.280Z,-7.03
2022-12-18T04:39:17.381Z,-7.09
2022-12-18T04:40:17.275Z,-6.99
2022-12-18T04:41:17.259Z,-7.08
2022-12-18T04:42:17.260Z,-7.26
2022-12-18T04:43:17.373Z,-7.27
2022-12-18T04:44:17.251Z,-7.31
2022-12-18T04:45:17.268Z,-7.10
2022-12-18T04:46:17.332Z,-7.21
2022-12-18T04:47:17.244Z,-7.27
2022-12-18T04:48:17.248Z,-7.10
2022-12-18T04:49:17.227Z,-7.06
2022-12-18T04:50:17.252Z,-7.10
2022-12-18T04:51:18.989Z,-7.13
2022-12-18T04:52:18.228Z,-7.12
2022-12-18T04:53:17.222Z,-6.99
2022-12-18T04:54:17.215Z,-7.03
2022-12-18T04:55:17.304Z,-6.99
2022-12-18T04:56:17.230Z,-7.08
2022-12-18T04:57:17.226Z,-7.09
2022-12-18T04:58:17.212Z,-7.10
2022-12-18T04:59:17.190Z,-7.27
2022-12-18T05:00:17.202Z,-7.12
2022-12-18T05:01:17.308Z,-6.95
2022-12-18T05:02:17.280Z,-6.94
2022-12-18T05:03:17.242Z,-6.95
2022-12-18T05:04:17.226Z,-7.09
2022-12-18T05:05:17.177Z,-7.29
2022-12-18T05:06:17.169Z,-7.16
2022-12-18T05:07:17.178Z,-7.30
2022-12-18T05:08:17.166Z,-7.34
2022-12-18T05:09:17.165Z,-7.33
2022-12-18T05:10:17.154Z,-7.31
2022-12-18T05:11:17.236Z,-7.31
2022-12-18T05:12:17.169Z,-7.34
2022-12-18T05:13:18.010Z,-7.37
2022-12-18T05:14:17.137Z,-7.19
2022-12-18T05:15:17.150Z,-7.13
2022-12-18T05:16:17.337Z,-7.03
2022-12-18T05:17:17.153Z,-6.95
2022-12-18T05:18:17.121Z,-6.91
2022-12-18T05:19:17.116Z,-7.02
2022-12-18T05:20:17.132Z,-6.84
2022-12-18T05:21:17.117Z,-6.77
2022-12-18T05:22:17.115Z,-6.84
2022-12-18T05:23:17.116Z,-6.92
2022-12-18T05:24:17.105Z,-6.88
2022-12-18T05:25:17.095Z,-6.95
2022-12-18T05:26:17.087Z,-6.99
2022-12-18T05:27:17.178Z,-7.19
2022-12-18T05:28:17.107Z,-7.38
2022-12-18T05:29:17.131Z,-7.48
2022-12-18T05:30:17.062Z,-7.68
2022-12-18T05:31:17.142Z,-7.80
2022-12-18T05:32:17.068Z,-7.72
2022-12-18T05:33:17.087Z,-7.69
2022-12-18T05:34:17.055Z,-7.72
2022-12-18T05:35:17.068Z,-7.59
2022-12-18T05:36:17.070Z,-7.63
2022-12-18T05:37:17.028Z,-7.58
2022-12-18T05:38:17.124Z,-7.56
2022-12-18T05:39:17.128Z,-7.47
2022-12-18T05:40:17.030Z,-7.45
2022-12-18T05:41:17.027Z,-7.37
2022-12-18T05:42:17.019Z,-7.23
2022-12-18T05:43:21.177Z,-7.16
2022-12-18T05:44:18.023Z,-7.26
2022-12-18T05:45:17.023Z,-7.19
2022-12-18T05:46:17.089Z,-7.12
2022-12-18T05:47:17.003Z,-7.12
2022-12-18T05:48:17.004Z,-7.09
2022-12-18T05:49:17.108Z,-7.12
2022-12-18T05:50:17.004Z,-7.05
2022-12-18T05:51:16.988Z,-7.06
2022-12-18T05:52:16.979Z,-6.95
2022-12-18T05:53:16.971Z,-7.03
2022-12-18T05:54:17.015Z,-7.20
2022-12-18T05:55:16.983Z,-7.33
2022-12-18T05:56:16.981Z,-7.30
2022-12-18T05:57:16.966Z,-7.09
2022-12-18T05:58:16.947Z,-7.03
2022-12-18T05:59:17.062Z,-7.00
2022-12-18T06:00:16.969Z,-7.00
2022-12-18T06:01:16.998Z,-6.99
2022-12-18T06:02:17.017Z,-6.92
2022-12-18T06:03:17.061Z,-6.91
2022-12-18T06:04:17.065Z,-6.95
2022-12-18T06:05:16.931Z,-6.91
2022-12-18T06:06:16.918Z,-7.00
2022-12-18T06:07:16.923Z,-7.58
2022-12-18T06:08:16.903Z,-7.58
2022-12-18T06:09:16.935Z,-7.34
2022-12-18T06:10:16.898Z,-7.33
2022-12-18T06:11:16.901Z,-7.31
2022-12-18T06:12:16.906Z,-7.16
2022-12-18T06:13:16.903Z,-7.10
2022-12-18T06:14:16.877Z,-7.10
2022-12-18T06:15:17.976Z,-7.15
2022-12-18T06:16:16.998Z,-7.13
2022-12-18T06:17:16.880Z,-7.10
2022-12-18T06:18:16.861Z,-7.03
2022-12-18T06:19:16.868Z,-7.03
2022-12-18T06:20:16.900Z,-7.05
2022-12-18T06:21:16.840Z,-7.00
2022-12-18T06:22:16.852Z,-7.05
2022-12-18T06:23:16.856Z,-7.19
2022-12-18T06:24:16.841Z,-7.16
2022-12-18T06:25:16.855Z,-7.29
2022-12-18T06:26:17.848Z,-7.33
2022-12-18T06:27:16.826Z,-7.47
2022-12-18T06:28:16.828Z,-7.60
2022-12-18T06:29:16.844Z,-7.60
2022-12-18T06:30:16.817Z,-7.52
2022-12-18T06:31:17.006Z,-7.41
2022-12-18T06:32:16.811Z,-7.41
2022-12-18T06:33:16.799Z,-7.56
2022-12-18T06:34:16.803Z,-7.59
2022-12-18T06:35:16.811Z,-7.79
2022-12-18T06:36:16.799Z,-7.76
2022-12-18T06:37:17.350Z,-7.66
2022-12-18T06:38:16.789Z,-7.70
2022-12-18T06:39:16.783Z,-7.68
2022-12-18T06:40:16.783Z,-7.88
2022-12-18T06:41:16.799Z,-7.87
2022-12-18T06:42:16.758Z,-7.87
2022-12-18T06:43:17.792Z,-7.86
2022-12-18T06:44:16.760Z,-8.32
2022-12-18T06:45:16.769Z,-8.32
2022-12-18T06:46:16.827Z,-8.31
2022-12-18T06:47:16.873Z,-8.21
2022-12-18T06:48:16.763Z,-8.16
2022-12-18T06:49:16.753Z,-8.14
2022-12-18T06:50:16.748Z,-7.95
2022-12-18T06:51:16.724Z,-7.95
2022-12-18T06:52:16.727Z,-7.90
2022-12-18T06:53:16.745Z,-7.88
2022-12-18T06:54:16.727Z,-7.94
2022-12-18T06:55:16.723Z,-8.06
2022-12-18T06:56:16.708Z,-8.02
2022-12-18T06:57:16.700Z,-8.09
2022-12-18T06:58:16.699Z,-8.13
2022-12-18T06:59:16.707Z,-8.13
2022-12-18T07:00:16.699Z,-8.09
2022-12-18T07:01:16.830Z,-8.03
2022-12-18T07:02:16.776Z,-8.17
2022-12-18T07:03:16.777Z,-8.20
2022-12-18T07:04:16.681Z,-8.16
2022-12-18T07:05:16.678Z,-8.34
2022-12-18T07:06:16.671Z,-8.29
2022-12-18T07:07:16.656Z,-8.37
2022-12-18T07:08:16.697Z,-8.32
2022-12-18T07:09:16.652Z,-8.32
2022-12-18T07:10:16.645Z,-8.29
2022-12-18T07:11:16.671Z,-8.19
2022-12-18T07:12:16.656Z,-7.95
2022-12-18T07:13:16.646Z,-8.08
2022-12-18T07:14:16.628Z,-8.17
2022-12-18T07:15:16.631Z,-8.21
2022-12-18T07:16:23.951Z,-8.24
2022-12-18T07:17:18.615Z,-8.26
2022-12-18T07:18:16.631Z,-8.27
2022-12-18T07:19:16.702Z,-8.14
2022-12-18T07:20:16.706Z,-8.09
2022-12-18T07:21:16.613Z,-7.86
2022-12-18T07:22:16.620Z,-7.65
2022-12-18T07:23:17.477Z,-7.65
2022-12-18T07:24:16.589Z,-7.56
2022-12-18T07:25:16.612Z,-7.38
2022-12-18T07:26:16.612Z,-7.47
2022-12-18T07:27:16.600Z,-7.24
2022-12-18T07:28:17.630Z,-7.44
2022-12-18T07:29:17.556Z,-7.29
2022-12-18T07:30:16.552Z,-7.44
2022-12-18T07:31:16.655Z,-7.37
2022-12-18T07:32:16.565Z,-7.39
2022-12-18T07:33:16.549Z,-7.34
2022-12-18T07:34:16.536Z,-7.24
2022-12-18T07:35:19.378Z,-7.21
2022-12-18T07:36:18.919Z,-7.24
2022-12-18T07:37:16.533Z,-7.16
2022-12-18T07:38:16.552Z,-7.10
2022-12-18T07:39:16.516Z,-7.00
2022-12-18T07:40:16.510Z,-6.95
2022-12-18T07:41:16.515Z,-7.02
2022-12-18T07:42:16.524Z,-6.85
2022-12-18T07:43:16.505Z,-6.87
2022-12-18T07:44:16.503Z,-7.00
2022-12-18T07:45:16.487Z,-6.97
2022-12-18T07:46:16.529Z,-6.92
2022-12-18T07:47:16.487Z,-6.91
2022-12-18T07:48:16.505Z,-6.81
2022-12-18T07:49:16.470Z,-6.92
2022-12-18T07:50:16.488Z,-7.15
2022-12-18T07:51:16.561Z,-7.21
2022-12-18T07:52:19.308Z,-7.19
2022-12-18T07:53:17.446Z,-7.02
2022-12-18T07:54:16.443Z,-7.06
2022-12-18T07:55:16.457Z,-7.23
2022-12-18T07:56:31.883Z,-7.45
2022-12-18T07:57:48.442Z,-7.65
2022-12-18T07:58:18.441Z,-7.68
2022-12-18T07:59:16.480Z,-7.66
2022-12-18T08:00:16.435Z,-7.70
2022-12-18T08:01:16.504Z,-7.69
2022-12-18T08:02:16.553Z,-7.74
2022-12-18T08:03:16.480Z,-7.68
2022-12-18T08:04:16.416Z,-7.58
2022-12-18T08:05:16.405Z,-7.60
2022-12-18T08:06:16.410Z,-7.59
2022-12-18T08:07:16.484Z,-7.54
2022-12-18T08:08:16.397Z,-7.58
2022-12-18T08:09:16.395Z,-7.59
2022-12-18T08:10:16.407Z,-7.58
2022-12-18T08:11:16.386Z,-7.56
2022-12-18T08:12:16.419Z,-7.60
2022-12-18T08:13:16.423Z,-7.45
2022-12-18T08:14:16.363Z,-7.45
2022-12-18T08:15:16.361Z,-7.58
2022-12-18T08:16:16.412Z,-7.63
2022-12-18T08:17:16.386Z,-7.65
2022-12-18T08:18:16.354Z,-7.80
2022-12-18T08:19:16.341Z,-7.98
2022-12-18T08:20:16.345Z,-8.03
2022-12-18T08:21:16.370Z,-8.05
2022-12-18T08:22:16.329Z,-7.98
2022-12-18T08:23:16.450Z,-7.91
2022-12-18T08:24:16.333Z,-7.81
2022-12-18T08:25:16.324Z,-7.79
2022-12-18T08:26:16.316Z,-7.70
2022-12-18T08:27:31.742Z,-7.58
2022-12-18T08:28:18.326Z,-7.79
2022-12-18T08:29:21.436Z,-7.65
2022-12-18T08:30:17.291Z,-7.80
2022-12-18T08:31:16.340Z,-7.77
2022-12-18T08:32:16.322Z,-7.63
2022-12-18T08:33:16.286Z,-7.63
2022-12-18T08:34:16.330Z,-7.65
2022-12-18T08:35:18.700Z,-7.44
2022-12-18T08:36:17.279Z,-7.41
2022-12-18T08:37:16.272Z,-7.41
2022-12-18T08:38:16.299Z,-7.29
2022-12-18T08:39:16.367Z,-7.30
2022-12-18T08:40:16.279Z,-7.23
2022-12-18T08:41:16.268Z,-7.24
2022-12-18T08:42:16.263Z,-7.30
2022-12-18T08:43:16.243Z,-7.20
2022-12-18T08:44:16.276Z,-7.16
2022-12-18T08:45:16.256Z,-7.16
2022-12-18T08:46:16.318Z,-7.13
2022-12-18T08:47:16.250Z,-7.27
2022-12-18T08:48:20.681Z,-7.10
2022-12-18T08:49:18.231Z,-7.03
2022-12-18T08:50:16.216Z,-6.94
2022-12-18T08:51:16.213Z,-6.99
2022-12-18T08:52:16.227Z,-6.97
2022-12-18T08:53:16.208Z,-6.91
2022-12-18T08:54:16.212Z,-6.87
2022-12-18T08:55:16.286Z,-6.73
2022-12-18T08:56:16.211Z,-6.71
2022-12-18T08:57:16.183Z,-6.70
2022-12-18T08:58:16.192Z,-6.76
2022-12-18T08:59:19.739Z,-6.59
2022-12-18T09:00:17.198Z,-6.40
2022-12-18T09:01:16.324Z,-6.31
2022-12-18T09:02:16.375Z,-6.29
2022-12-18T09:03:16.247Z,-6.12
2022-12-18T09:04:16.159Z,-5.84
2022-12-18T09:05:16.162Z,-5.84
2022-12-18T09:06:16.174Z,-5.72
2022-12-18T09:07:16.191Z,-5.74
2022-12-18T09:08:16.168Z,-5.82
2022-12-18T09:09:16.159Z,-5.65
2022-12-18T09:10:16.135Z,-5.67
2022-12-18T09:11:16.242Z,-5.45
2022-12-18T09:12:16.137Z,-5.38
2022-12-18T09:13:16.158Z,-5.30
2022-12-18T09:14:16.173Z,-5.41
2022-12-18T09:15:16.115Z,-5.44
2022-12-18T09:16:16.111Z,-5.30
2022-12-18T09:17:16.162Z,-5.26
2022-12-18T09:18:16.095Z,-5.26
2022-12-18T09:19:16.098Z,-5.17
2022-12-18T09:20:16.098Z,-5.20
2022-12-18T09:21:16.100Z,-5.03
2022-12-18T09:22:16.082Z,-4.98
2022-12-18T09:23:16.080Z,-5.04
2022-12-18T09:24:16.113Z,-5.17
2022-12-18T09:25:16.063Z,-4.93
2022-12-18T09:26:16.074Z,-4.95
2022-12-18T09:27:16.157Z,-4.86
2022-12-18T09:28:16.065Z,-4.95
2022-12-18T09:29:16.378Z,-5.43
2022-12-18T09:30:16.033Z,-5.45
2022-12-18T09:31:16.145Z,-5.30
2022-12-18T09:32:21.980Z,-5.11
2022-12-18T09:33:18.029Z,-5.05
2022-12-18T09:34:16.017Z,-4.83
2022-12-18T09:35:16.021Z,-4.65
2022-12-18T09:36:16.031Z,-4.73
2022-12-18T09:37:16.012Z,-4.50
2022-12-18T09:38:16.002Z,-4.44
2022-12-18T09:39:15.966Z,-4.37
2022-12-18T09:40:15.967Z,-4.73
2022-12-18T09:41:15.970Z,-4.66
2022-12-18T09:42:15.960Z,-4.54
2022-12-18T09:43:16.056Z,-4.32
2022-12-18T09:44:15.969Z,-4.38
2022-12-18T09:45:16.033Z,-4.26
2022-12-18T09:46:15.993Z,-4.23
2022-12-18T09:47:15.926Z,-4.47
2022-12-18T09:48:15.949Z,-4.55
2022-12-18T09:49:15.914Z,-4.69
2022-12-18T09:50:17.537Z,-4.85
2022-12-18T09:51:16.922Z,-4.83
2022-12-18T09:52:15.907Z,-4.94
2022-12-18T09:53:15.914Z,-4.76
2022-12-18T09:54:15.882Z,-4.59
2022-12-18T09:55:15.866Z,-4.47
2022-12-18T09:56:15.859Z,-4.32
2022-12-18T09:57:15.864Z,-4.58
2022-12-18T09:58:15.867Z,-4.83
2022-12-18T09:59:15.973Z,-4.82
2022-12-18T10:00:15.843Z,-4.73
2022-12-18T10:01:15.909Z,-4.66
2022-12-18T10:02:15.926Z,-4.69
2022-12-18T10:03:15.905Z,-4.55
2022-12-18T10:04:15.861Z,-4.30
2022-12-18T10:05:15.816Z,-4.08
2022-12-18T10:06:15.813Z,-3.98
2022-12-18T10:07:15.795Z,-3.81
2022-12-18T10:08:15.788Z,-3.72
2022-12-18T10:09:41.775Z,-3.84
2022-12-18T10:10:15.799Z,-3.87
2022-12-18T10:11:15.776Z,-3.93
2022-12-18T10:12:15.784Z,-3.76
2022-12-18T10:13:15.767Z,-3.57
2022-12-18T10:14:15.788Z,-3.39
2022-12-18T10:15:15.876Z,-3.07
2022-12-18T10:16:15.801Z,-3.05
2022-12-18T10:17:15.753Z,-2.94
2022-12-18T10:18:20.278Z,-2.99
2022-12-18T10:19:17.771Z,-3.17
2022-12-18T10:20:15.738Z,-3.32
2022-12-18T10:21:15.731Z,-3.38
2022-12-18T10:22:15.723Z,-3.29
2022-12-18T10:23:15.743Z,-3.17
2022-12-18T10:24:15.723Z,-3.49
2022-12-18T10:25:15.708Z,-3.47
2022-12-18T10:26:15.741Z,-3.53
2022-12-18T10:27:16.699Z,-3.83
2022-12-18T10:28:15.676Z,-3.78
2022-12-18T10:29:15.674Z,-3.71
2022-12-18T10:30:15.698Z,-3.71
2022-12-18T10:31:15.878Z,-3.94
2022-12-18T10:32:15.702Z,-3.94
2022-12-18T10:33:15.662Z,-4.02
2022-12-18T10:34:15.710Z,-4.18
2022-12-18T10:35:15.694Z,-4.07
2022-12-18T10:36:15.701Z,-4.05
2022-12-18T10:37:15.640Z,-3.91
2022-12-18T10:38:15.632Z,-3.54
2022-12-18T10:39:15.625Z,-3.57
2022-12-18T10:40:21.935Z,-3.62
2022-12-18T10:41:17.660Z,-3.71
2022-12-18T10:42:15.635Z,-3.62
2022-12-18T10:43:15.610Z,-3.64
2022-12-18T10:44:15.590Z,-3.70
2022-12-18T10:45:16.644Z,-3.53
2022-12-18T10:46:15.665Z,-3.43
2022-12-18T10:47:15.671Z,-3.60
2022-12-18T10:48:15.565Z,-3.54
2022-12-18T10:49:15.553Z,-3.32
2022-12-18T10:50:15.538Z,-3.13
2022-12-18T10:51:15.563Z,-3.11
2022-12-18T10:52:15.586Z,-3.08
2022-12-18T10:53:15.551Z,-3.00
2022-12-18T10:54:15.569Z,-2.96
2022-12-18T10:55:15.571Z,-2.87
2022-12-18T10:56:15.510Z,-2.90
2022-12-18T10:57:15.517Z,-3.00
2022-12-18T10:58:15.537Z,-2.92
2022-12-18T10:59:15.504Z,-2.63
2022-12-18T11:00:15.489Z,-2.58
2022-12-18T11:01:15.734Z,-2.53
2022-12-18T11:02:16.589Z,-2.71
2022-12-18T11:03:15.704Z,-2.43
2022-12-18T11:04:15.475Z,-2.72
2022-12-18T11:05:15.484Z,-2.60
2022-12-18T11:06:15.479Z,-2.63
2022-12-18T11:07:15.456Z,-2.43
2022-12-18T11:08:15.477Z,-2.32
2022-12-18T11:09:15.675Z,-2.38
2022-12-18T11:10:16.555Z,-2.17
2022-12-18T11:11:15.428Z,-2.17
2022-12-18T11:12:15.484Z,-1.84
2022-12-18T11:13:15.491Z,-1.48
2022-12-18T11:14:15.422Z,-1.45
2022-12-18T11:15:15.448Z,-1.36
2022-12-18T11:16:15.451Z,-1.05
2022-12-18T11:17:30.745Z,-0.92
2022-12-18T11:18:17.498Z,-0.36
2022-12-18T11:19:15.412Z,-0.16
2022-12-18T11:20:15.402Z,-0.15
2022-12-18T11:21:15.393Z,-0.18
2022-12-18T11:22:15.398Z,-0.23
2022-12-18T11:23:15.414Z,-0.22
2022-12-18T11:24:15.426Z,-0.11
2022-12-18T11:25:32.517Z,-0.16
2022-12-18T11:26:17.346Z,-0.24
2022-12-18T11:27:15.404Z,-0.27
2022-12-18T11:28:15.330Z,-0.52
2022-12-18T11:29:15.361Z,-0.65
2022-12-18T11:30:15.372Z,-0.77
2022-12-18T11:31:15.437Z,-0.77
2022-12-18T11:32:15.314Z,-0.73
2022-12-18T11:33:15.287Z,-0.68
2022-12-18T11:34:30.911Z,-0.69
2022-12-18T11:35:17.286Z,-0.92
2022-12-18T11:36:15.304Z,-1.25
2022-12-18T11:37:15.286Z,-1.48
2022-12-18T11:38:15.264Z,-1.56
2022-12-18T11:39:15.328Z,-1.62
2022-12-18T11:40:15.291Z,-1.56
2022-12-18T11:41:15.285Z,-1.64
2022-12-18T11:42:15.258Z,-1.60
2022-12-18T11:43:15.265Z,-1.64
2022-12-18T11:44:15.245Z,-1.20
2022-12-18T11:45:15.245Z,-1.27
2022-12-18T11:46:19.508Z,-1.00
2022-12-18T11:47:16.237Z,-1.06
2022-12-18T11:48:15.223Z,-0.65
2022-12-18T11:49:15.208Z,-0.70
2022-12-18T11:50:15.410Z,-0.62
2022-12-18T11:51:15.236Z,-0.62
2022-12-18T11:52:15.219Z,-0.99
2022-12-18T11:53:15.185Z,-1.06
2022-12-18T11:54:15.184Z,-1.27
2022-12-18T11:55:15.174Z,-1.41
2022-12-18T11:56:15.171Z,-1.42
2022-12-18T11:57:15.179Z,-1.27
2022-12-18T11:58:15.162Z,-1.24
2022-12-18T11:59:15.152Z,-1.10
2022-12-18T12:00:15.215Z,-0.81
2022-12-18T12:01:15.223Z,-0.81
2022-12-18T12:02:15.381Z,-1.09
2022-12-18T12:03:15.223Z,-1.18
2022-12-18T12:04:15.149Z,-1.05
2022-12-18T12:05:15.123Z,-1.06
2022-12-18T12:06:15.223Z,-0.91
2022-12-18T12:07:15.932Z,-0.65
2022-12-18T12:08:15.108Z,-0.59
2022-12-18T12:09:15.090Z,-0.57
2022-12-18T12:10:15.150Z,-0.65
2022-12-18T12:11:15.068Z,-0.72
2022-12-18T12:12:15.080Z,-1.05
2022-12-18T12:13:15.086Z,-1.02
2022-12-18T12:14:15.068Z,-0.73
2022-12-18T12:15:15.053Z,-0.77
2022-12-18T12:16:15.095Z,-1.06
2022-12-18T12:17:15.054Z,-0.73
2022-12-18T12:18:15.064Z,-0.92
2022-12-18T12:19:15.057Z,-0.94
2022-12-18T12:20:15.055Z,-0.78
2022-12-18T12:21:15.059Z,-1.09
2022-12-18T12:22:15.114Z,-1.27
2022-12-18T12:23:15.039Z,-1.28
2022-12-18T12:24:15.006Z,-1.48
2022-12-18T12:25:15.113Z,-1.49
2022-12-18T12:26:14.992Z,-1.18
2022-12-18T12:27:15.041Z,-0.87
2022-12-18T12:28:15.019Z,-0.75
2022-12-18T12:29:20.857Z,-0.63
2022-12-18T12:30:16.977Z,-0.55
2022-12-18T12:31:14.993Z,-0.54
2022-12-18T12:32:14.983Z,-0.78
2022-12-18T12:33:14.971Z,-0.83
2022-12-18T12:34:14.976Z,-0.63
2022-12-18T12:35:14.933Z,-0.34
2022-12-18T12:36:14.925Z,-0.36
2022-12-18T12:37:14.925Z,-0.13
2022-12-18T12:38:15.006Z,-0.04
2022-12-18T12:39:14.931Z,0.13
2022-12-18T12:40:48.347Z,0.20
2022-12-18T12:41:16.915Z,-0.12
2022-12-18T12:42:14.915Z,-0.23
2022-12-18T12:43:14.898Z,-0.41
2022-12-18T12:44:14.934Z,-0.60
2022-12-18T12:45:15.454Z,-0.73
2022-12-18T12:46:14.905Z,-1.00
2022-12-18T12:47:14.865Z,-0.73
2022-12-18T12:48:14.874Z,-0.47
2022-12-18T12:49:14.859Z,-0.16
2022-12-18T12:50:14.875Z,-0.13
2022-12-18T12:51:14.881Z,-0.05
2022-12-18T12:52:14.867Z,0.18
2022-12-18T12:53:14.839Z,0.20